sensor_id;sensor_type;location;lat;lon;timestamp;pressure;altitude;pressure_sealevel;temperature;humidity
6090;BME280;3073;42.660;23.316;2022-10-16T00:00:46;95147.66;;;9.15;100.00
6090;BME280;3073;42.660;23.316;2022-10-16T00:03:13;95148.44;;;9.16;100.00
6090;BME280;3073;42.660;23.316;2022-10-16T00:05:41;95154.94;;;9.12;100.00
6090;BME280;3073;42.660;23.316;2022-10-16T00:08:10;95149.78;;;9.18;100.00
6090;BME280;3073;42.660;23.316;2022-10-16T00:10:40;95161.91;;;9.23;100.00
6090;BME280;3073;42.660;23.316;2022-10-16T00:13:08;95165.28;;;9.17;100.00
6090;BME280;3073;42.660;23.316;2022-10-16T00:15:35;95165.13;;;9.12;100.00
6090;BME280;3073;42.660;23.316;2022-10-16T00:18:03;95164.50;;;8.92;100.00
6090;BME280;3073;42.660;23.316;2022-10-16T00:20:34;95168.84;;;8.66;100.00
6090;BME280;3073;42.660;23.316;2022-10-16T00:23:02;95163.56;;;8.61;100.00
6090;BME280;3073;42.660;23.316;2022-10-16T00:25:29;95160.94;;;8.50;100.00
6090;BME280;3073;42.660;23.316;2022-10-16T00:27:58;95175.09;;;8.39;100.00
6090;BME280;3073;42.660;23.316;2022-10-16T00:30:26;95168.53;;;8.18;100.00
6090;BME280;3073;42.660;23.316;2022-10-16T00:32:54;95173.91;;;7.97;100.00
6090;BME280;3073;42.660;23.316;2022-10-16T00:35:21;95175.06;;;8.01;100.00
6090;BME280;3073;42.660;23.316;2022-10-16T00:37:47;95180.44;;;8.18;100.00
6090;BME280;3073;42.660;23.316;2022-10-16T00:40:14;95181.88;;;8.07;100.00
6090;BME280;3073;42.660;23.316;2022-10-16T00:42:41;95173.41;;;7.75;100.00
6090;BME280;3073;42.660;23.316;2022-10-16T00:45:09;95184.16;;;7.71;100.00
6090;BME280;3073;42.660;23.316;2022-10-16T00:47:39;95172.47;;;7.70;100.00
6090;BME280;3073;42.660;23.316;2022-10-16T00:50:09;95168.91;;;7.77;100.00
6090;BME280;3073;42.660;23.316;2022-10-16T00:52:40;95164.19;;;7.81;100.00
6090;BME280;3073;42.660;23.316;2022-10-16T00:55:10;95164.19;;;7.81;100.00
6090;BME280;3073;42.660;23.316;2022-10-16T00:57:37;95163.66;;;7.72;100.00
6090;BME280;3073;42.660;23.316;2022-10-16T01:00:06;95158.38;;;7.74;100.00
6090;BME280;3073;42.660;23.316;2022-10-16T01:02:34;95170.81;;;7.89;100.00
6090;BME280;3073;42.660;23.316;2022-10-16T01:05:03;95175.81;;;8.08;100.00
6090;BME280;3073;42.660;23.316;2022-10-16T01:07:38;95181.19;;;8.25;100.00
6090;BME280;3073;42.660;23.316;2022-10-16T01:10:14;95175.13;;;8.33;100.00
6090;BME280;3073;42.660;23.316;2022-10-16T01:12:47;95180.91;;;8.46;100.00
6090;BME280;3073;42.660;23.316;2022-10-16T01:15:22;95180.50;;;8.49;100.00
6090;BME280;3073;42.660;23.316;2022-10-16T01:17:53;95182.03;;;8.57;100.00
6090;BME280;3073;42.660;23.316;2022-10-16T01:20:29;95177.06;;;8.62;100.00
6090;BME280;3073;42.660;23.316;2022-10-16T01:23:05;95172.59;;;8.57;100.00
6090;BME280;3073;42.660;23.316;2022-10-16T01:25:55;95173.97;;;8.60;100.00
6090;BME280;3073;42.660;23.316;2022-10-16T01:28:29;95167.78;;;8.49;100.00
6090;BME280;3073;42.660;23.316;2022-10-16T01:30:59;95165.19;;;8.56;100.00
6090;BME280;3073;42.660;23.316;2022-10-16T01:33:31;95163.56;;;8.61;100.00
6090;BME280;3073;42.660;23.316;2022-10-16T01:36:06;95162.22;;;8.59;100.00
6090;BME280;3073;42.660;23.316;2022-10-16T01:38:38;95171.47;;;8.53;100.00
6090;BME280;3073;42.660;23.316;2022-10-16T01:41:09;95163.31;;;8.45;100.00
6090;BME280;3073;42.660;23.316;2022-10-16T01:43:41;95166.66;;;8.39;100.00
6090;BME280;3073;42.660;23.316;2022-10-16T01:46:13;95156.88;;;8.42;100.00
6090;BME280;3073;42.660;23.316;2022-10-16T01:48:40;95163.47;;;8.50;100.00
6090;BME280;3073;42.660;23.316;2022-10-16T01:51:10;95167.72;;;8.56;100.00
6090;BME280;3073;42.660;23.316;2022-10-16T01:53:39;95177.50;;;8.59;100.00
6090;BME280;3073;42.660;23.316;2022-10-16T01:56:08;95182.03;;;8.57;100.00
6090;BME280;3073;42.660;23.316;2022-10-16T01:58:40;95181.47;;;8.48;100.00
6090;BME280;3073;42.660;23.316;2022-10-16T02:01:10;95186.59;;;8.42;100.00
6090;BME280;3073;42.660;23.316;2022-10-16T02:03:39;95180.28;;;8.13;100.00
6090;BME280;3073;42.660;23.316;2022-10-16T02:06:07;95184.06;;;7.97;100.00
6090;BME280;3073;42.660;23.316;2022-10-16T02:08:34;95189.94;;;7.91;100.00
6090;BME280;3073;42.660;23.316;2022-10-16T02:11:02;95192.94;;;7.75;100.00
6090;BME280;3073;42.660;23.316;2022-10-16T02:13:32;95194.03;;;7.41;100.00
6090;BME280;3073;42.660;23.316;2022-10-16T02:16:01;95189.59;;;7.17;100.00
6090;BME280;3073;42.660;23.316;2022-10-16T02:18:28;95193.69;;;7.11;100.00
6090;BME280;3073;42.660;23.316;2022-10-16T02:20:59;95191.94;;;7.05;100.00
6090;BME280;3073;42.660;23.316;2022-10-16T02:23:30;95198.75;;;7.18;100.00
6090;BME280;3073;42.660;23.316;2022-10-16T02:26:03;95199.53;;;7.25;100.00
6090;BME280;3073;42.660;23.316;2022-10-16T02:28:36;95205.03;;;6.89;100.00
6090;BME280;3073;42.660;23.316;2022-10-16T02:31:08;95206.94;;;6.81;100.00
6090;BME280;3073;42.660;23.316;2022-10-16T02:33:40;95205.97;;;6.75;100.00
6090;BME280;3073;42.660;23.316;2022-10-16T02:36:09;95203.28;;;6.90;100.00
6090;BME280;3073;42.660;23.316;2022-10-16T02:38:36;95201.50;;;6.97;100.00
6090;BME280;3073;42.660;23.316;2022-10-16T02:41:04;95197.19;;;7.04;100.00
6090;BME280;3073;42.660;23.316;2022-10-16T02:43:31;95206.56;;;7.10;100.00
6090;BME280;3073;42.660;23.316;2022-10-16T02:45:59;95210.47;;;7.06;100.00
6090;BME280;3073;42.660;23.316;2022-10-16T02:48:27;95211.28;;;6.93;100.00
6090;BME280;3073;42.660;23.316;2022-10-16T02:50:54;95212.81;;;6.94;100.00
6090;BME280;3073;42.660;23.316;2022-10-16T02:53:20;95211.66;;;6.97;100.00
6090;BME280;3073;42.660;23.316;2022-10-16T02:55:47;95210.84;;;7.16;100.00
6090;BME280;3073;42.660;23.316;2022-10-16T02:58:14;95210.63;;;7.24;100.00
6090;BME280;3073;42.660;23.316;2022-10-16T03:00:41;95221.00;;;7.22;100.00
6090;BME280;3073;42.660;23.316;2022-10-16T03:03:08;95223.72;;;7.21;100.00
6090;BME280;3073;42.660;23.316;2022-10-16T03:05:36;95221.78;;;7.23;100.00
6090;BME280;3073;42.660;23.316;2022-10-16T03:08:03;95222.38;;;7.18;100.00
6090;BME280;3073;42.660;23.316;2022-10-16T03:10:30;95218.25;;;7.17;100.00
6090;BME280;3073;42.660;23.316;2022-10-16T03:12:57;95223.72;;;7.28;100.00
6090;BME280;3073;42.660;23.316;2022-10-16T03:15:24;95229.19;;;7.31;100.00
6090;BME280;3073;42.660;23.316;2022-10-16T03:17:51;95227.03;;;7.35;100.00
6090;BME280;3073;42.660;23.316;2022-10-16T03:20:18;95235.44;;;7.35;100.00
6090;BME280;3073;42.660;23.316;2022-10-16T03:22:46;95231.16;;;7.29;100.00
6090;BME280;3073;42.660;23.316;2022-10-16T03:25:12;95231.53;;;7.26;100.00
6090;BME280;3073;42.660;23.316;2022-10-16T03:27:39;95233.13;;;7.27;100.00
6090;BME280;3073;42.660;23.316;2022-10-16T03:30:07;95236.22;;;7.16;100.00
6090;BME280;3073;42.660;23.316;2022-10-16T03:32:34;95231.94;;;7.23;100.00
6090;BME280;3073;42.660;23.316;2022-10-16T03:35:01;95237.41;;;7.07;100.00
6090;BME280;3073;42.660;23.316;2022-10-16T03:37:29;95233.09;;;7.14;100.00
6090;BME280;3073;42.660;23.316;2022-10-16T03:39:57;95239.56;;;7.03;100.00
6090;BME280;3073;42.660;23.316;2022-10-16T03:42:24;95240.31;;;6.91;100.00
6090;BME280;3073;42.660;23.316;2022-10-16T03:44:52;95241.09;;;6.78;100.00
6090;BME280;3073;42.660;23.316;2022-10-16T03:47:18;95232.50;;;6.53;100.00
6090;BME280;3073;42.660;23.316;2022-10-16T03:49:47;95232.66;;;6.45;100.00
6090;BME280;3073;42.660;23.316;2022-10-16T03:52:14;95218.25;;;6.52;100.00
6090;BME280;3073;42.660;23.316;2022-10-16T03:54:41;95227.81;;;6.56;100.00
6090;BME280;3073;42.660;23.316;2022-10-16T03:57:09;95221.34;;;6.41;100.00
6090;BME280;3073;42.660;23.316;2022-10-16T03:59:35;95215.53;;;6.53;100.00
6090;BME280;3073;42.660;23.316;2022-10-16T04:02:02;95219.41;;;6.49;100.00
6090;BME280;3073;42.660;23.316;2022-10-16T04:04:29;95217.84;;;6.48;100.00
6090;BME280;3073;42.660;23.316;2022-10-16T04:06:56;95214.34;;;6.56;100.00
6090;BME280;3073;42.660;23.316;2022-10-16T04:09:23;95215.94;;;6.70;100.00
6090;BME280;3073;42.660;23.316;2022-10-16T04:11:49;95218.28;;;6.85;100.00
6090;BME280;3073;42.660;23.316;2022-10-16T04:14:18;95218.66;;;6.95;100.00
6090;BME280;3073;42.660;23.316;2022-10-16T04:16:44;95219.66;;;7.00;100.00
6090;BME280;3073;42.660;23.316;2022-10-16T04:19:11;95228.81;;;7.08;100.00
6090;BME280;3073;42.660;23.316;2022-10-16T04:21:38;95225.31;;;6.96;100.00
6090;BME280;3073;42.660;23.316;2022-10-16T04:24:05;95225.69;;;6.80;100.00
6090;BME280;3073;42.660;23.316;2022-10-16T04:26:32;95223.72;;;6.68;100.00
6090;BME280;3073;42.660;23.316;2022-10-16T04:28:59;95231.13;;;6.57;100.00
6090;BME280;3073;42.660;23.316;2022-10-16T04:31:27;95230.72;;;6.47;100.00
6090;BME280;3073;42.660;23.316;2022-10-16T04:33:54;95230.91;;;6.45;100.00
6090;BME280;3073;42.660;23.316;2022-10-16T04:36:21;95231.13;;;6.50;100.00
6090;BME280;3073;42.660;23.316;2022-10-16T04:38:48;95237.34;;;6.54;100.00
6090;BME280;3073;42.660;23.316;2022-10-16T04:41:15;95241.47;;;6.55;100.00
6090;BME280;3073;42.660;23.316;2022-10-16T04:43:42;95240.50;;;6.63;100.00
6090;BME280;3073;42.660;23.316;2022-10-16T04:46:08;95238.16;;;6.68;100.00
6090;BME280;3073;42.660;23.316;2022-10-16T04:48:37;95249.31;;;6.73;100.00
6090;BME280;3073;42.660;23.316;2022-10-16T04:51:04;95257.66;;;6.81;100.00
6090;BME280;3073;42.660;23.316;2022-10-16T04:53:30;95251.06;;;6.80;100.00
6090;BME280;3073;42.660;23.316;2022-10-16T04:55:58;95262.56;;;6.89;100.00
6090;BME280;3073;42.660;23.316;2022-10-16T04:58:25;95263.34;;;6.89;100.00
6090;BME280;3073;42.660;23.316;2022-10-16T05:00:52;95265.88;;;6.83;100.00
6090;BME280;3073;42.660;23.316;2022-10-16T05:03:18;95271.34;;;6.80;100.00
6090;BME280;3073;42.660;23.316;2022-10-16T05:05:47;95268.63;;;6.94;100.00
6090;BME280;3073;42.660;23.316;2022-10-16T05:08:14;95273.28;;;6.97;100.00
6090;BME280;3073;42.660;23.316;2022-10-16T05:10:43;95274.47;;;6.95;100.00
6090;BME280;3073;42.660;23.316;2022-10-16T05:13:10;95273.09;;;6.92;100.00
6090;BME280;3073;42.660;23.316;2022-10-16T05:15:37;95277.22;;;6.87;100.00
6090;BME280;3073;42.660;23.316;2022-10-16T05:18:04;95283.66;;;6.96;100.00
6090;BME280;3073;42.660;23.316;2022-10-16T05:20:31;95286.56;;;6.80;100.00
6090;BME280;3073;42.660;23.316;2022-10-16T05:23:00;95282.44;;;6.79;100.00
6090;BME280;3073;42.660;23.316;2022-10-16T05:25:26;95290.88;;;6.99;100.00
6090;BME280;3073;42.660;23.316;2022-10-16T05:27:54;95290.88;;;7.18;100.00
6090;BME280;3073;42.660;23.316;2022-10-16T05:30:20;95284.25;;;7.50;100.00
6090;BME280;3073;42.660;23.316;2022-10-16T05:32:48;95287.16;;;7.73;100.00
6090;BME280;3073;42.660;23.316;2022-10-16T05:35:16;95290.41;;;7.94;100.00
6090;BME280;3073;42.660;23.316;2022-10-16T05:37:43;95297.34;;;8.31;100.00
6090;BME280;3073;42.660;23.316;2022-10-16T05:40:11;95294.38;;;8.41;100.00
6090;BME280;3073;42.660;23.316;2022-10-16T05:42:39;95295.22;;;8.66;100.00
6090;BME280;3073;42.660;23.316;2022-10-16T05:45:07;95294.75;;;8.82;100.00
6090;BME280;3073;42.660;23.316;2022-10-16T05:47:35;95296.88;;;9.16;100.00
6090;BME280;3073;42.660;23.316;2022-10-16T05:50:02;95300.16;;;9.48;100.00
6090;BME280;3073;42.660;23.316;2022-10-16T05:52:30;95310.09;;;9.74;100.00
6090;BME280;3073;42.660;23.316;2022-10-16T05:54:56;95311.81;;;10.23;100.00
6090;BME280;3073;42.660;23.316;2022-10-16T05:57:24;95314.13;;;10.43;100.00
6090;BME280;3073;42.660;23.316;2022-10-16T05:59:51;95327.72;;;10.55;100.00
6090;BME280;3073;42.660;23.316;2022-10-16T06:02:18;95340.03;;;10.58;100.00
6090;BME280;3073;42.660;23.316;2022-10-16T06:04:45;95337.03;;;10.79;100.00
6090;BME280;3073;42.660;23.316;2022-10-16T06:07:11;95333.75;;;10.91;100.00
6090;BME280;3073;42.660;23.316;2022-10-16T06:09:38;95349.50;;;11.29;100.00
6090;BME280;3073;42.660;23.316;2022-10-16T06:12:05;95345.03;;;11.24;100.00
6090;BME280;3073;42.660;23.316;2022-10-16T06:14:33;95343.78;;;11.68;100.00
6090;BME280;3073;42.660;23.316;2022-10-16T06:17:00;95351.63;;;11.97;100.00
6090;BME280;3073;42.660;23.316;2022-10-16T06:19:27;95348.81;;;12.33;100.00
6090;BME280;3073;42.660;23.316;2022-10-16T06:21:54;95355.13;;;12.42;100.00
6090;BME280;3073;42.660;23.316;2022-10-16T06:24:23;95353.88;;;12.56;100.00
6090;BME280;3073;42.660;23.316;2022-10-16T06:26:50;95355.69;;;12.32;100.00
6090;BME280;3073;42.660;23.316;2022-10-16T06:29:17;95355.13;;;12.82;100.00
6090;BME280;3073;42.660;23.316;2022-10-16T06:31:52;95355.72;;;12.72;100.00
6090;BME280;3073;42.660;23.316;2022-10-16T06:34:19;95353.88;;;12.84;100.00
6090;BME280;3073;42.660;23.316;2022-10-16T06:36:46;95358.69;;;13.21;100.00
6090;BME280;3073;42.660;23.316;2022-10-16T06:39:13;95369.13;;;13.64;100.00
6090;BME280;3073;42.660;23.316;2022-10-16T06:41:39;95366.63;;;13.86;100.00
6090;BME280;3073;42.660;23.316;2022-10-16T06:44:07;95367.28;;;14.15;100.00
6090;BME280;3073;42.660;23.316;2022-10-16T06:46:34;95371.72;;;14.19;100.00
6090;BME280;3073;42.660;23.316;2022-10-16T06:49:02;95377.50;;;14.91;100.00
6090;BME280;3073;42.660;23.316;2022-10-16T06:51:29;95376.19;;;14.89;100.00
6090;BME280;3073;42.660;23.316;2022-10-16T06:53:57;95384.41;;;15.39;100.00
6090;BME280;3073;42.660;23.316;2022-10-16T06:56:25;95385.38;;;15.92;100.00
6090;BME280;3073;42.660;23.316;2022-10-16T06:58:53;95393.41;;;16.42;97.92
6090;BME280;3073;42.660;23.316;2022-10-16T07:01:22;95387.22;;;16.95;91.31
6090;BME280;3073;42.660;23.316;2022-10-16T07:03:49;95395.56;;;17.18;87.18
6090;BME280;3073;42.660;23.316;2022-10-16T07:06:19;95389.78;;;16.85;86.45
6090;BME280;3073;42.660;23.316;2022-10-16T07:08:47;95398.72;;;17.65;82.38
6090;BME280;3073;42.660;23.316;2022-10-16T07:11:16;95397.69;;;17.81;81.65
6090;BME280;3073;42.660;23.316;2022-10-16T07:13:45;95396.16;;;17.70;79.32
6090;BME280;3073;42.660;23.316;2022-10-16T07:16:14;95399.00;;;17.89;77.13
6090;BME280;3073;42.660;23.316;2022-10-16T07:18:41;95409.53;;;18.43;72.58
6090;BME280;3073;42.660;23.316;2022-10-16T07:21:12;95400.78;;;19.08;69.35
6090;BME280;3073;42.660;23.316;2022-10-16T07:23:40;95407.44;;;18.45;71.09
6090;BME280;3073;42.660;23.316;2022-10-16T07:26:08;95396.53;;;18.68;70.50
6090;BME280;3073;42.660;23.316;2022-10-16T07:28:36;95408.72;;;19.27;65.95
6090;BME280;3073;42.660;23.316;2022-10-16T07:31:04;95410.78;;;19.25;66.06
6090;BME280;3073;42.660;23.316;2022-10-16T07:33:31;95408.47;;;19.23;65.29
6090;BME280;3073;42.660;23.316;2022-10-16T07:35:58;95407.75;;;19.13;67.84
6090;BME280;3073;42.660;23.316;2022-10-16T07:38:25;95408.50;;;19.67;65.56
6090;BME280;3073;42.660;23.316;2022-10-16T07:40:57;95407.59;;;18.89;66.99
6090;BME280;3073;42.660;23.316;2022-10-16T07:43:25;95407.50;;;17.69;75.65
6090;BME280;3073;42.660;23.316;2022-10-16T07:45:52;95409.09;;;17.80;96.14
6090;BME280;3073;42.660;23.316;2022-10-16T07:48:19;95407.69;;;18.48;84.36
6090;BME280;3073;42.660;23.316;2022-10-16T07:50:46;95409.03;;;18.51;88.06
6090;BME280;3073;42.660;23.316;2022-10-16T07:53:13;95415.34;;;18.89;73.04
6090;BME280;3073;42.660;23.316;2022-10-16T07:55:40;95408.22;;;19.20;78.65
6090;BME280;3073;42.660;23.316;2022-10-16T07:58:08;95416.00;;;19.20;66.00
6090;BME280;3073;42.660;23.316;2022-10-16T08:00:36;95412.66;;;18.20;70.68
6090;BME280;3073;42.660;23.316;2022-10-16T08:03:03;95414.72;;;18.23;81.14
6090;BME280;3073;42.660;23.316;2022-10-16T08:05:31;95417.41;;;19.46;75.30
6090;BME280;3073;42.660;23.316;2022-10-16T08:07:59;95416.31;;;19.57;65.11
6090;BME280;3073;42.660;23.316;2022-10-16T08:10:27;95422.25;;;19.09;67.61
6090;BME280;3073;42.660;23.316;2022-10-16T08:12:54;95415.38;;;19.38;64.39
6090;BME280;3073;42.660;23.316;2022-10-16T08:15:23;95416.34;;;19.52;73.75
6090;BME280;3073;42.660;23.316;2022-10-16T08:17:57;95416.38;;;18.93;69.40
6090;BME280;3073;42.660;23.316;2022-10-16T08:20:25;95410.13;;;19.04;67.17
6090;BME280;3073;42.660;23.316;2022-10-16T08:22:52;95405.91;;;19.96;68.04
6090;BME280;3073;42.660;23.316;2022-10-16T08:25:19;95401.31;;;20.74;64.32
6090;BME280;3073;42.660;23.316;2022-10-16T08:27:46;95406.72;;;20.78;59.88
6090;BME280;3073;42.660;23.316;2022-10-16T08:30:14;95410.56;;;21.23;60.98
6090;BME280;3073;42.660;23.316;2022-10-16T08:32:42;95408.25;;;21.77;57.38
6090;BME280;3073;42.660;23.316;2022-10-16T08:35:10;95406.84;;;22.90;56.42
6090;BME280;3073;42.660;23.316;2022-10-16T08:37:37;95411.34;;;23.62;51.82
6090;BME280;3073;42.660;23.316;2022-10-16T08:40:11;95412.16;;;23.35;52.27
6090;BME280;3073;42.660;23.316;2022-10-16T08:42:51;95405.25;;;23.88;51.14
6090;BME280;3073;42.660;23.316;2022-10-16T08:45:33;95408.78;;;23.48;49.08
6090;BME280;3073;42.660;23.316;2022-10-16T08:48:14;95413.00;;;22.94;49.42
6090;BME280;3073;42.660;23.316;2022-10-16T08:50:43;95408.06;;;22.93;50.65
6090;BME280;3073;42.660;23.316;2022-10-16T08:53:15;95410.59;;;22.71;48.79
6090;BME280;3073;42.660;23.316;2022-10-16T08:55:45;95417.06;;;23.36;48.03
6090;BME280;3073;42.660;23.316;2022-10-16T08:58:15;95406.13;;;23.12;47.24
6090;BME280;3073;42.660;23.316;2022-10-16T09:00:45;95413.13;;;21.28;47.45
6090;BME280;3073;42.660;23.316;2022-10-16T09:03:21;95420.84;;;22.21;47.31
6090;BME280;3073;42.660;23.316;2022-10-16T09:06:17;95412.47;;;21.73;48.21
6090;BME280;3073;42.660;23.316;2022-10-16T09:09:00;95423.97;;;22.04;45.84
6090;BME280;3073;42.660;23.316;2022-10-16T09:11:39;95418.06;;;21.80;46.75
6090;BME280;3073;42.660;23.316;2022-10-16T09:14:22;95406.72;;;22.95;45.87
6090;BME280;3073;42.660;23.316;2022-10-16T09:16:57;95416.88;;;21.73;44.84
6090;BME280;3073;42.660;23.316;2022-10-16T09:19:32;95419.19;;;22.25;45.80
6090;BME280;3073;42.660;23.316;2022-10-16T09:22:12;95415.41;;;23.54;43.43
6090;BME280;3073;42.660;23.316;2022-10-16T09:24:41;95412.69;;;22.96;41.09
6090;BME280;3073;42.660;23.316;2022-10-16T09:27:10;95413.25;;;21.18;45.10
6090;BME280;3073;42.660;23.316;2022-10-16T09:29:37;95418.81;;;21.30;45.53
6090;BME280;3073;42.660;23.316;2022-10-16T09:32:11;95407.22;;;21.78;45.86
6090;BME280;3073;42.660;23.316;2022-10-16T09:34:42;95416.78;;;22.75;42.97
6090;BME280;3073;42.660;23.316;2022-10-16T09:37:12;95407.50;;;22.96;41.05
6090;BME280;3073;42.660;23.316;2022-10-16T09:39:44;95418.38;;;23.61;40.51
6090;BME280;3073;42.660;23.316;2022-10-16T09:42:14;95415.06;;;23.69;40.64
6090;BME280;3073;42.660;23.316;2022-10-16T09:44:47;95411.31;;;24.59;39.92
6090;BME280;3073;42.660;23.316;2022-10-16T09:47:17;95408.44;;;25.26;39.30
6090;BME280;3073;42.660;23.316;2022-10-16T09:49:54;95406.94;;;25.68;37.48
6090;BME280;3073;42.660;23.316;2022-10-16T09:52:23;95405.69;;;26.92;36.11
6090;BME280;3073;42.660;23.316;2022-10-16T09:54:51;95401.22;;;26.08;34.84
6090;BME280;3073;42.660;23.316;2022-10-16T09:57:20;95405.13;;;24.16;38.22
6090;BME280;3073;42.660;23.316;2022-10-16T09:59:48;95392.59;;;24.66;37.49
6090;BME280;3073;42.660;23.316;2022-10-16T10:02:16;95394.75;;;23.80;37.24
6090;BME280;3073;42.660;23.316;2022-10-16T10:04:49;95397.34;;;23.80;38.35
6090;BME280;3073;42.660;23.316;2022-10-16T10:07:21;95391.56;;;24.36;38.21
6090;BME280;3073;42.660;23.316;2022-10-16T10:09:50;95388.81;;;24.10;37.28
6090;BME280;3073;42.660;23.316;2022-10-16T10:12:19;95388.72;;;23.71;37.34
6090;BME280;3073;42.660;23.316;2022-10-16T10:14:47;95388.25;;;24.92;37.71
6090;BME280;3073;42.660;23.316;2022-10-16T10:17:17;95389.53;;;25.12;36.25
6090;BME280;3073;42.660;23.316;2022-10-16T10:19:50;95382.00;;;25.36;34.74
6090;BME280;3073;42.660;23.316;2022-10-16T10:22:31;95385.03;;;26.15;34.34
6090;BME280;3073;42.660;23.316;2022-10-16T10:25:10;95385.69;;;26.50;34.67
6090;BME280;3073;42.660;23.316;2022-10-16T10:27:46;95376.38;;;26.32;32.94
6090;BME280;3073;42.660;23.316;2022-10-16T10:30:18;95383.44;;;26.40;33.28
6090;BME280;3073;42.660;23.316;2022-10-16T10:32:54;95375.63;;;26.98;33.64
6090;BME280;3073;42.660;23.316;2022-10-16T10:35:32;95377.41;;;27.06;32.07
6090;BME280;3073;42.660;23.316;2022-10-16T10:38:09;95367.50;;;26.91;33.10
6090;BME280;3073;42.660;23.316;2022-10-16T10:40:50;95366.75;;;27.11;33.14
6090;BME280;3073;42.660;23.316;2022-10-16T10:43:28;95361.63;;;27.36;32.20
6090;BME280;3073;42.660;23.316;2022-10-16T10:46:00;95358.88;;;26.61;32.71
6090;BME280;3073;42.660;23.316;2022-10-16T10:48:47;95362.28;;;27.53;32.75
6090;BME280;3073;42.660;23.316;2022-10-16T10:51:22;95359.13;;;27.48;31.87
6090;BME280;3073;42.660;23.316;2022-10-16T10:54:05;95348.59;;;27.27;31.02
6090;BME280;3073;42.660;23.316;2022-10-16T10:56:45;95350.59;;;26.51;32.17
6090;BME280;3073;42.660;23.316;2022-10-16T11:02:17;95340.72;;;26.86;30.96
6090;BME280;3073;42.660;23.316;2022-10-16T11:08:01;95348.34;;;27.94;30.67
6090;BME280;3073;42.660;23.316;2022-10-16T11:10:38;95338.16;;;27.93;30.56
6090;BME280;3073;42.660;23.316;2022-10-16T11:13:14;95343.38;;;28.50;29.99
6090;BME280;3073;42.660;23.316;2022-10-16T11:15:47;95339.69;;;28.39;28.59
6090;BME280;3073;42.660;23.316;2022-10-16T11:18:18;95335.03;;;27.46;29.76
6090;BME280;3073;42.660;23.316;2022-10-16T11:20:49;95336.44;;;26.52;31.17
6090;BME280;3073;42.660;23.316;2022-10-16T11:23:22;95331.97;;;26.73;31.71
6090;BME280;3073;42.660;23.316;2022-10-16T11:25:54;95323.97;;;26.99;29.76
6090;BME280;3073;42.660;23.316;2022-10-16T11:28:25;95331.06;;;26.69;28.75
6090;BME280;3073;42.660;23.316;2022-10-16T11:30:57;95323.88;;;26.95;30.08
6090;BME280;3073;42.660;23.316;2022-10-16T11:33:30;95321.66;;;27.39;29.78
6090;BME280;3073;42.660;23.316;2022-10-16T11:36:06;95315.59;;;25.20;30.81
6090;BME280;3073;42.660;23.316;2022-10-16T11:38:41;95317.53;;;25.91;31.26
6090;BME280;3073;42.660;23.316;2022-10-16T11:41:17;95331.34;;;26.76;30.86
6090;BME280;3073;42.660;23.316;2022-10-16T11:43:52;95323.16;;;27.07;30.94
6090;BME280;3073;42.660;23.316;2022-10-16T11:46:24;95319.22;;;26.72;30.15
6090;BME280;3073;42.660;23.316;2022-10-16T11:48:59;95318.56;;;26.07;29.55
6090;BME280;3073;42.660;23.316;2022-10-16T11:51:33;95323.28;;;24.90;31.04
6090;BME280;3073;42.660;23.316;2022-10-16T11:54:05;95323.44;;;25.11;31.76
6090;BME280;3073;42.660;23.316;2022-10-16T11:56:39;95321.97;;;25.99;31.40
6090;BME280;3073;42.660;23.316;2022-10-16T11:59:13;95329.41;;;25.80;30.39
6090;BME280;3073;42.660;23.316;2022-10-16T12:01:48;95324.31;;;24.02;32.42
6090;BME280;3073;42.660;23.316;2022-10-16T12:04:23;95324.75;;;23.95;33.13
6090;BME280;3073;42.660;23.316;2022-10-16T12:06:57;95319.84;;;24.81;33.03
6090;BME280;3073;42.660;23.316;2022-10-16T12:09:27;95325.28;;;24.85;32.45
6090;BME280;3073;42.660;23.316;2022-10-16T12:11:57;95322.81;;;24.40;32.97
6090;BME280;3073;42.660;23.316;2022-10-16T12:14:37;95324.34;;;25.67;32.34
6090;BME280;3073;42.660;23.316;2022-10-16T12:17:23;95324.50;;;26.63;31.62
6090;BME280;3073;42.660;23.316;2022-10-16T12:19:58;95325.41;;;27.58;30.92
6090;BME280;3073;42.660;23.316;2022-10-16T12:22:27;95330.41;;;27.96;30.80
6090;BME280;3073;42.660;23.316;2022-10-16T12:24:55;95325.00;;;28.98;29.71
6090;BME280;3073;42.660;23.316;2022-10-16T12:27:28;95317.31;;;29.45;28.77
6090;BME280;3073;42.660;23.316;2022-10-16T12:29:57;95324.56;;;29.36;28.20
6090;BME280;3073;42.660;23.316;2022-10-16T12:32:29;95326.00;;;28.57;29.58
6090;BME280;3073;42.660;23.316;2022-10-16T12:35:00;95323.28;;;28.78;29.94
6090;BME280;3073;42.660;23.316;2022-10-16T12:37:31;95323.38;;;28.70;29.88
6090;BME280;3073;42.660;23.316;2022-10-16T12:40:25;95322.91;;;28.07;30.41
6090;BME280;3073;42.660;23.316;2022-10-16T12:42:54;95321.00;;;27.62;31.09
6090;BME280;3073;42.660;23.316;2022-10-16T12:45:28;95322.06;;;27.49;31.24
6090;BME280;3073;42.660;23.316;2022-10-16T12:47:57;95323.72;;;27.54;30.74
6090;BME280;3073;42.660;23.316;2022-10-16T12:50:27;95323.25;;;28.18;30.99
6090;BME280;3073;42.660;23.316;2022-10-16T12:52:56;95324.56;;;28.60;29.73
6090;BME280;3073;42.660;23.316;2022-10-16T12:55:24;95328.69;;;28.12;30.04
6090;BME280;3073;42.660;23.316;2022-10-16T12:58:09;95328.28;;;28.83;29.49
6090;BME280;3073;42.660;23.316;2022-10-16T13:00:44;95330.69;;;28.64;30.21
6090;BME280;3073;42.660;23.316;2022-10-16T13:03:31;95330.31;;;29.54;29.78
6090;BME280;3073;42.660;23.316;2022-10-16T13:06:12;95332.91;;;29.38;28.86
6090;BME280;3073;42.660;23.316;2022-10-16T13:11:45;95331.50;;;29.56;28.64
6090;BME280;3073;42.660;23.316;2022-10-16T13:14:31;95340.00;;;28.98;29.19
6090;BME280;3073;42.660;23.316;2022-10-16T13:17:08;95328.81;;;29.41;29.44
6090;BME280;3073;42.660;23.316;2022-10-16T13:19:42;95330.97;;;29.51;28.79
6090;BME280;3073;42.660;23.316;2022-10-16T13:22:17;95324.75;;;29.43;28.68
6090;BME280;3073;42.660;23.316;2022-10-16T13:24:58;95326.34;;;27.12;29.19
6090;BME280;3073;42.660;23.316;2022-10-16T13:27:35;95338.22;;;26.13;30.61
6090;BME280;3073;42.660;23.316;2022-10-16T13:30:13;95330.91;;;26.74;30.36
6090;BME280;3073;42.660;23.316;2022-10-16T13:32:45;95328.72;;;27.05;30.60
6090;BME280;3073;42.660;23.316;2022-10-16T13:35:23;95334.78;;;27.39;30.66